createdAt,value
2022-11-16T00:00:24.690Z,7.19
2022-11-16T00:02:55.764Z,7.22
2022-11-16T00:05:28.579Z,7.25
2022-11-16T00:08:00.517Z,7.26
2022-11-16T00:10:31.371Z,7.21
2022-11-16T00:13:02.238Z,7.15
2022-11-16T00:15:33.090Z,7.04
2022-11-16T00:18:03.948Z,7.01
2022-11-16T00:20:34.840Z,7.04
2022-11-16T00:23:06.283Z,6.97
2022-11-16T00:25:37.787Z,6.94
2022-11-16T00:28:08.671Z,6.95
2022-11-16T00:30:39.842Z,7.00
2022-11-16T00:33:12.604Z,7.04
2022-11-16T00:35:43.491Z,7.00
2022-11-16T00:38:14.875Z,7.06
2022-11-16T00:40:46.531Z,7.03
2022-11-16T00:43:17.421Z,6.98
2022-11-16T00:45:48.346Z,6.95
2022-11-16T00:48:19.311Z,6.98
2022-11-16T00:50:50.475Z,7.10
2022-11-16T00:53:23.018Z,7.24
2022-11-16T00:55:53.986Z,7.28
2022-11-16T00:58:25.111Z,7.29
2022-11-16T01:01:08.692Z,7.30
2022-11-16T01:03:40.285Z,7.31
2022-11-16T01:06:14.721Z,7.31
2022-11-16T01:08:46.204Z,7.23
2022-11-16T01:11:36.001Z,7.19
2022-11-16T01:14:09.209Z,7.25
2022-11-16T01:16:40.290Z,7.22
2022-11-16T01:19:11.555Z,7.12
2022-11-16T01:21:42.509Z,6.98
2022-11-16T01:24:13.366Z,6.93
2022-11-16T01:26:44.240Z,6.86
2022-11-16T01:29:15.684Z,6.73
2022-11-16T01:31:50.392Z,6.63
2022-11-16T01:34:22.092Z,6.62
2022-11-16T01:36:53.902Z,6.70
2022-11-16T01:39:25.005Z,6.80
2022-11-16T01:41:59.875Z,6.92
2022-11-16T01:45:08.051Z,6.90
2022-11-16T01:47:39.028Z,6.82
2022-11-16T01:50:15.220Z,6.82
2022-11-16T01:52:55.158Z,6.78
2022-11-16T01:55:29.521Z,6.74
2022-11-16T01:58:26.366Z,6.58
2022-11-16T02:01:02.797Z,6.54
2022-11-16T02:03:53.949Z,6.57
2022-11-16T02:06:47.056Z,6.51
2022-11-16T02:09:59.013Z,6.46
2022-11-16T02:12:54.726Z,6.59
2022-11-16T02:15:33.610Z,6.60
2022-11-16T02:18:22.380Z,6.57
2022-11-16T02:21:10.463Z,6.59
2022-11-16T02:24:03.694Z,6.67
2022-11-16T02:26:57.734Z,6.73
2022-11-16T02:29:35.484Z,6.76
2022-11-16T02:32:11.962Z,6.77
2022-11-16T02:34:46.264Z,6.71
2022-11-16T02:37:20.204Z,6.59
2022-11-16T02:39:54.213Z,6.56
2022-11-16T02:42:30.407Z,6.54
2022-11-16T02:45:04.145Z,6.57
2022-11-16T02:47:36.606Z,6.60
2022-11-16T02:50:12.025Z,6.55
2022-11-16T02:52:42.680Z,6.52
2022-11-16T02:55:14.642Z,6.54
2022-11-16T02:57:56.939Z,6.59
2022-11-16T03:00:32.454Z,6.67
2022-11-16T03:03:12.432Z,6.69
2022-11-16T03:05:49.347Z,6.70
2022-11-16T03:08:24.499Z,6.71
2022-11-16T03:11:16.608Z,6.71
2022-11-16T03:13:48.187Z,6.73
2022-11-16T03:16:24.126Z,6.75
2022-11-16T03:18:58.315Z,6.78
2022-11-16T03:21:34.157Z,6.77
2022-11-16T03:24:06.378Z,6.83
2022-11-16T03:26:47.523Z,6.80
2022-11-16T03:29:27.664Z,6.69
2022-11-16T03:32:04.700Z,6.60
2022-11-16T03:34:39.542Z,6.62
2022-11-16T03:37:11.611Z,6.64
2022-11-16T03:39:42.625Z,6.66
2022-11-16T03:42:15.162Z,6.62
2022-11-16T03:44:48.899Z,6.65
2022-11-16T03:47:19.562Z,6.74
2022-11-16T03:49:50.732Z,6.82
2022-11-16T03:52:29.875Z,6.82
2022-11-16T03:55:00.554Z,6.83
2022-11-16T03:57:31.551Z,6.76
2022-11-16T04:00:02.899Z,6.70
2022-11-16T04:02:43.941Z,6.66
2022-11-16T04:05:37.732Z,6.64
2022-11-16T04:08:29.595Z,6.71
2022-11-16T04:11:17.831Z,6.72
2022-11-16T04:14:09.528Z,6.57
2022-11-16T04:16:59.355Z,6.53
2022-11-16T04:19:47.587Z,6.52
2022-11-16T04:22:40.626Z,6.46
2022-11-16T04:25:16.768Z,6.44
2022-11-16T04:28:06.428Z,6.51
2022-11-16T04:30:51.019Z,6.62
2022-11-16T04:33:40.211Z,6.72
2022-11-16T04:36:29.455Z,6.73
2022-11-16T04:39:00.258Z,6.74
2022-11-16T04:41:49.871Z,6.82
2022-11-16T04:44:25.939Z,6.79
2022-11-16T04:47:08.383Z,6.76
2022-11-16T04:49:40.411Z,6.78
2022-11-16T04:52:11.366Z,6.77
2022-11-16T04:54:42.678Z,6.77
2022-11-16T04:57:13.439Z,6.81
2022-11-16T04:59:44.332Z,6.81
2022-11-16T05:02:15.314Z,6.94
2022-11-16T05:04:58.028Z,6.99
2022-11-16T05:07:29.382Z,6.96
2022-11-16T05:10:09.773Z,6.96
2022-11-16T05:12:40.422Z,6.99
2022-11-16T05:15:12.573Z,7.07
2022-11-16T05:17:43.354Z,7.14
2022-11-16T05:20:36.082Z,7.22
2022-11-16T05:23:27.842Z,7.29
2022-11-16T05:25:58.973Z,7.26
2022-11-16T05:28:29.796Z,7.25
2022-11-16T05:31:00.829Z,7.24
2022-11-16T05:33:31.984Z,7.30
2022-11-16T05:36:02.707Z,7.35
2022-11-16T05:38:33.872Z,7.33
2022-11-16T05:41:04.754Z,7.32
2022-11-16T05:43:35.395Z,7.22
2022-11-16T05:46:22.155Z,7.07
2022-11-16T05:48:53.139Z,6.92
2022-11-16T05:51:23.909Z,6.90
2022-11-16T05:53:55.313Z,6.88
2022-11-16T05:56:26.611Z,6.87
2022-11-16T05:58:58.241Z,6.79
2022-11-16T06:01:29.560Z,6.76
2022-11-16T06:04:02.015Z,6.79
2022-11-16T06:06:33.123Z,6.79
2022-11-16T06:09:05.048Z,6.77
2022-11-16T06:11:37.623Z,6.79
2022-11-16T06:14:09.224Z,6.87
2022-11-16T06:16:40.102Z,6.88
2022-11-16T06:19:12.141Z,6.87
2022-11-16T06:21:42.846Z,6.76
2022-11-16T06:24:18.342Z,6.65
2022-11-16T06:26:49.879Z,6.68
2022-11-16T06:29:21.527Z,6.75
2022-11-16T06:31:52.137Z,6.79
2022-11-16T06:34:22.859Z,6.79
2022-11-16T06:36:53.488Z,6.78
2022-11-16T06:39:24.517Z,6.74
2022-11-16T06:41:55.463Z,6.65
2022-11-16T06:44:26.679Z,6.50
2022-11-16T06:47:00.998Z,6.44
2022-11-16T06:49:32.246Z,6.44
2022-11-16T06:52:05.038Z,6.44
2022-11-16T06:54:35.901Z,6.55
2022-11-16T06:57:06.988Z,6.59
2022-11-16T06:59:37.983Z,6.57
2022-11-16T07:02:10.599Z,6.55
2022-11-16T07:04:41.472Z,6.59
2022-11-16T07:07:12.194Z,6.53
2022-11-16T07:09:44.590Z,6.53
2022-11-16T07:12:15.455Z,6.63
2022-11-16T07:14:46.492Z,6.66
2022-11-16T07:17:17.588Z,6.73
2022-11-16T07:19:48.786Z,6.69
2022-11-16T07:22:19.581Z,6.65
2022-11-16T07:24:51.304Z,6.61
2022-11-16T07:27:22.169Z,6.59
2022-11-16T07:29:54.209Z,6.60
2022-11-16T07:32:39.973Z,6.59
2022-11-16T07:35:28.820Z,6.69
2022-11-16T07:37:59.722Z,6.62
2022-11-16T07:40:30.344Z,6.59
2022-11-16T07:43:01.720Z,6.61
2022-11-16T07:45:41.389Z,6.68
2022-11-16T07:48:13.599Z,6.68
2022-11-16T07:51:22.889Z,6.73
2022-11-16T07:54:07.281Z,6.67
2022-11-16T07:56:37.945Z,6.68
2022-11-16T07:59:08.659Z,6.72
2022-11-16T08:01:42.474Z,6.66
2022-11-16T08:04:15.378Z,6.62
2022-11-16T08:06:50.934Z,6.66
2022-11-16T08:09:22.461Z,6.63
2022-11-16T08:11:53.506Z,6.67
2022-11-16T08:14:24.169Z,6.65
2022-11-16T08:16:55.874Z,6.69
2022-11-16T08:19:26.719Z,6.66
2022-11-16T08:21:57.345Z,6.62
2022-11-16T08:24:28.724Z,6.66
2022-11-16T08:26:59.429Z,6.69
2022-11-16T08:29:30.584Z,6.75
2022-11-16T08:32:01.458Z,6.66
2022-11-16T08:34:32.483Z,6.64
2022-11-16T08:37:03.813Z,6.68
2022-11-16T08:39:41.530Z,6.72
2022-11-16T08:42:12.399Z,6.77
2022-11-16T08:44:43.179Z,6.77
2022-11-16T08:47:16.673Z,6.72
2022-11-16T08:49:59.141Z,6.67
2022-11-16T08:52:31.127Z,6.68
2022-11-16T08:55:02.930Z,6.65
2022-11-16T08:57:34.001Z,6.67
2022-11-16T09:00:11.151Z,6.66
2022-11-16T09:02:41.769Z,6.63
2022-11-16T09:05:13.064Z,6.59
2022-11-16T09:07:45.728Z,6.55
2022-11-16T09:10:19.048Z,6.57
2022-11-16T09:12:49.728Z,6.60
2022-11-16T09:15:20.966Z,6.59
2022-11-16T09:17:54.884Z,6.59
2022-11-16T09:20:26.393Z,6.55
2022-11-16T09:22:57.365Z,6.60
2022-11-16T09:25:28.003Z,6.63
2022-11-16T09:27:58.943Z,6.61
2022-11-16T09:30:30.488Z,6.65
2022-11-16T09:33:02.013Z,6.65
2022-11-16T09:35:32.920Z,6.61
2022-11-16T09:38:03.562Z,6.57
2022-11-16T09:40:38.785Z,6.52
2022-11-16T09:43:20.813Z,6.48
2022-11-16T09:46:01.613Z,6.49
2022-11-16T09:48:36.739Z,6.42
2022-11-16T09:51:12.918Z,6.41
2022-11-16T09:53:46.608Z,6.41
2022-11-16T09:56:22.891Z,6.42
2022-11-16T09:59:00.260Z,6.51
2022-11-16T10:01:37.405Z,6.57
2022-11-16T10:04:12.291Z,6.58
2022-11-16T10:06:50.522Z,6.65
2022-11-16T10:09:21.795Z,6.66
2022-11-16T10:12:01.782Z,6.67
2022-11-16T10:14:50.611Z,6.60
2022-11-16T10:17:32.632Z,6.63
2022-11-16T10:20:19.222Z,6.68
2022-11-16T10:22:56.251Z,6.79
2022-11-16T10:25:34.052Z,6.80
2022-11-16T10:28:41.170Z,6.80
2022-11-16T10:31:19.720Z,6.83
2022-11-16T10:33:55.168Z,6.82
2022-11-16T10:36:30.321Z,6.85
2022-11-16T10:39:03.040Z,6.91
2022-11-16T10:41:39.030Z,6.94
2022-11-16T10:44:18.884Z,6.98
2022-11-16T10:46:58.497Z,6.98
2022-11-16T10:49:36.007Z,6.94
2022-11-16T10:52:06.912Z,6.94
2022-11-16T10:54:42.872Z,6.94
2022-11-16T10:57:14.974Z,6.93
2022-11-16T10:59:47.328Z,6.92
2022-11-16T11:02:33.615Z,6.96
2022-11-16T11:05:16.399Z,7.02
2022-11-16T11:07:55.345Z,7.13
2022-11-16T11:10:33.033Z,7.22
2022-11-16T11:13:22.223Z,7.23
2022-11-16T11:15:53.332Z,7.21
2022-11-16T11:18:29.808Z,7.06
2022-11-16T11:21:14.153Z,6.96
2022-11-16T11:23:48.747Z,6.91
2022-11-16T11:26:38.859Z,6.94
2022-11-16T11:29:23.446Z,6.98
2022-11-16T11:31:56.137Z,6.99
2022-11-16T11:34:29.438Z,7.02
2022-11-16T11:37:02.572Z,7.04
2022-11-16T11:39:35.871Z,6.99
2022-11-16T11:42:21.194Z,7.00
2022-11-16T11:44:57.406Z,7.08
2022-11-16T11:50:41.703Z,7.09
2022-11-16T11:53:25.883Z,7.08
2022-11-16T11:55:59.183Z,7.12
2022-11-16T11:58:33.885Z,7.06
2022-11-16T12:01:25.036Z,7.03
2022-11-16T12:04:28.307Z,7.08
2022-11-16T12:07:07.154Z,7.04
2022-11-16T12:09:47.393Z,7.05
2022-11-16T12:12:29.773Z,7.07
2022-11-16T12:15:16.834Z,7.10
2022-11-16T12:17:57.601Z,7.17
2022-11-16T12:20:39.887Z,7.24
2022-11-16T12:23:35.773Z,7.22
2022-11-16T12:26:14.582Z,7.20
2022-11-16T12:28:58.910Z,7.16
2022-11-16T12:31:47.592Z,7.11
2022-11-16T12:34:28.683Z,7.05
2022-11-16T12:37:06.081Z,6.98
2022-11-16T12:39:44.748Z,6.95
2022-11-16T12:42:35.102Z,6.96
2022-11-16T12:45:29.040Z,6.97
2022-11-16T12:48:26.160Z,6.85
2022-11-16T12:51:03.119Z,6.66
2022-11-16T12:54:05.196Z,6.57
2022-11-16T12:56:48.892Z,6.44
2022-11-16T12:59:44.063Z,6.35
2022-11-16T13:02:28.798Z,6.14
2022-11-16T13:05:04.029Z,6.04
2022-11-16T13:07:43.835Z,5.89
2022-11-16T13:10:19.776Z,5.75
2022-11-16T13:13:09.117Z,5.72
2022-11-16T13:15:47.814Z,5.59
2022-11-16T13:18:22.291Z,5.61
2022-11-16T13:21:00.341Z,5.70
2022-11-16T13:23:50.806Z,5.69
2022-11-16T13:26:30.304Z,5.59
2022-11-16T13:29:07.828Z,5.45
2022-11-16T13:31:49.237Z,5.47
2022-11-16T13:34:24.857Z,5.51
2022-11-16T13:36:55.838Z,5.50
2022-11-16T13:40:02.459Z,5.50
2022-11-16T13:42:35.831Z,5.43
2022-11-16T13:45:17.861Z,5.34
2022-11-16T13:47:54.330Z,5.19
2022-11-16T13:50:37.713Z,5.16
2022-11-16T13:56:06.735Z,5.03
2022-11-16T13:58:47.487Z,5.04
2022-11-16T14:01:19.578Z,5.08
2022-11-16T14:04:13.590Z,5.08
2022-11-16T14:07:01.236Z,5.06
2022-11-16T14:09:51.482Z,4.98
2022-11-16T14:12:53.187Z,4.94
2022-11-16T14:15:25.483Z,4.85
2022-11-16T14:17:59.235Z,4.91
2022-11-16T14:20:51.092Z,4.98
2022-11-16T14:23:50.140Z,4.92
2022-11-16T14:26:26.444Z,4.91
2022-11-16T14:29:34.369Z,4.88
2022-11-16T14:32:18.628Z,4.89
2022-11-16T14:34:51.267Z,4.72
2022-11-16T14:37:35.936Z,4.63
2022-11-16T14:40:14.401Z,4.53
2022-11-16T14:43:15.362Z,4.48
2022-11-16T14:45:49.992Z,4.44
2022-11-16T14:48:22.860Z,4.32
2022-11-16T14:51:07.500Z,4.19
2022-11-16T14:53:41.611Z,4.07
2022-11-16T14:56:14.292Z,4.05
2022-11-16T14:58:53.633Z,4.08
2022-11-16T15:01:27.625Z,4.12
2022-11-16T15:04:02.339Z,4.12
2022-11-16T15:06:39.396Z,4.11
2022-11-16T15:09:14.563Z,4.04
2022-11-16T15:12:05.761Z,4.05
2022-11-16T15:14:46.459Z,4.05
2022-11-16T15:17:20.593Z,4.12
2022-11-16T15:20:03.003Z,4.13
2022-11-16T15:22:40.998Z,4.04
2022-11-16T15:25:27.831Z,3.88
2022-11-16T15:28:00.379Z,3.92
2022-11-16T15:30:34.135Z,3.94
2022-11-16T15:33:11.531Z,3.98
2022-11-16T15:35:42.184Z,3.92
2022-11-16T15:38:17.693Z,3.90
2022-11-16T15:40:51.636Z,3.97
2022-11-16T15:43:24.595Z,4.01
2022-11-16T15:45:56.064Z,4.04
2022-11-16T15:48:28.475Z,4.08
2022-11-16T15:51:08.344Z,4.13
2022-11-16T15:53:41.085Z,4.14
2022-11-16T15:56:16.743Z,4.09
2022-11-16T15:58:47.615Z,4.06
2022-11-16T16:01:19.284Z,4.03
2022-11-16T16:03:58.646Z,4.05
2022-11-16T16:06:50.188Z,4.07
2022-11-16T16:09:31.506Z,4.09
2022-11-16T16:12:18.919Z,4.12
2022-11-16T16:14:50.879Z,4.10
2022-11-16T16:17:27.610Z,4.14
2022-11-16T16:20:00.698Z,4.16
2022-11-16T16:22:33.869Z,4.14
2022-11-16T16:25:04.752Z,4.07
2022-11-16T16:27:41.249Z,4.03
2022-11-16T16:30:17.000Z,4.06
2022-11-16T16:32:51.881Z,4.03
2022-11-16T16:35:24.779Z,3.96
2022-11-16T16:38:00.861Z,3.92
2022-11-16T16:40:31.951Z,3.97
2022-11-16T16:43:02.552Z,3.92
2022-11-16T16:45:38.839Z,3.89
2022-11-16T16:48:09.766Z,3.92
2022-11-16T16:50:40.716Z,3.96
2022-11-16T16:53:13.555Z,4.01
2022-11-16T16:55:46.019Z,4.05
2022-11-16T16:58:17.096Z,4.11
2022-11-16T17:00:47.758Z,4.10
2022-11-16T17:03:18.387Z,4.05
2022-11-16T17:05:49.020Z,4.02
2022-11-16T17:08:19.616Z,3.97
2022-11-16T17:10:53.992Z,3.98
2022-11-16T17:13:24.610Z,3.99
2022-11-16T17:15:55.317Z,3.97
2022-11-16T17:18:26.156Z,3.96
2022-11-16T17:20:56.758Z,4.02
2022-11-16T17:23:29.567Z,4.08
2022-11-16T17:26:00.200Z,4.13
2022-11-16T17:28:30.942Z,4.10
2022-11-16T17:31:05.141Z,4.12
2022-11-16T17:33:37.651Z,4.08
2022-11-16T17:36:10.075Z,4.06
2022-11-16T17:38:41.761Z,4.08
2022-11-16T17:41:14.468Z,4.06
2022-11-16T17:43:47.513Z,4.07
2022-11-16T17:46:19.881Z,4.09
2022-11-16T17:48:51.367Z,4.15
2022-11-16T17:51:24.007Z,4.16
2022-11-16T17:53:55.157Z,4.15
2022-11-16T17:56:27.271Z,4.22
2022-11-16T17:58:59.137Z,4.19
2022-11-16T18:01:29.930Z,4.12
2022-11-16T18:04:05.766Z,4.14
2022-11-16T18:06:36.393Z,4.16
2022-11-16T18:09:07.484Z,4.23
2022-11-16T18:11:39.738Z,4.29
2022-11-16T18:14:10.631Z,4.29
2022-11-16T18:16:43.366Z,4.32
2022-11-16T18:19:18.593Z,4.31
2022-11-16T18:21:49.520Z,4.30
2022-11-16T18:24:20.201Z,4.24
2022-11-16T18:26:50.843Z,4.20
2022-11-16T18:29:22.217Z,4.23
2022-11-16T18:31:52.809Z,4.22
2022-11-16T18:34:23.426Z,4.23
2022-11-16T18:36:54.055Z,4.25
2022-11-16T18:39:24.707Z,4.20
2022-11-16T18:41:56.004Z,4.17
2022-11-16T18:44:26.652Z,4.16
2022-11-16T18:46:57.332Z,4.13
2022-11-16T18:49:27.984Z,4.09
2022-11-16T18:51:58.563Z,4.07
2022-11-16T18:54:29.183Z,4.02
2022-11-16T18:56:59.826Z,4.03
2022-11-16T18:59:30.471Z,3.97
2022-11-16T19:02:01.219Z,3.99
2022-11-16T19:04:31.972Z,3.98
2022-11-16T19:07:02.700Z,3.95
2022-11-16T19:09:33.373Z,4.00
2022-11-16T19:12:03.971Z,3.98
2022-11-16T19:14:34.599Z,3.96
2022-11-16T19:17:05.333Z,3.91
2022-11-16T19:19:35.955Z,3.92
2022-11-16T19:22:06.611Z,3.95
2022-11-16T19:24:37.239Z,3.97
2022-11-16T19:27:07.870Z,3.97
2022-11-16T19:29:38.467Z,4.00
2022-11-16T19:32:09.236Z,4.00
2022-11-16T19:34:39.845Z,3.99
2022-11-16T19:37:10.805Z,3.93
2022-11-16T19:39:41.485Z,3.94
2022-11-16T19:42:12.081Z,3.93
2022-11-16T19:44:42.719Z,3.93
2022-11-16T19:47:15.724Z,3.94
2022-11-16T19:49:50.212Z,4.08
2022-11-16T19:52:21.174Z,4.13
2022-11-16T19:54:51.920Z,4.13
2022-11-16T19:57:25.027Z,4.05
2022-11-16T19:59:56.333Z,4.01
2022-11-16T20:02:34.514Z,3.94
2022-11-16T20:05:05.410Z,3.90
2022-11-16T20:07:38.671Z,3.84
2022-11-16T20:10:10.194Z,3.89
2022-11-16T20:12:41.131Z,3.92
2022-11-16T20:15:12.627Z,3.84
2022-11-16T20:17:43.226Z,3.83
2022-11-16T20:20:14.728Z,3.88
2022-11-16T20:22:45.721Z,3.92
2022-11-16T20:25:16.848Z,3.94
2022-11-16T20:27:47.662Z,4.00
2022-11-16T20:30:19.224Z,4.00
2022-11-16T20:32:49.900Z,3.97
2022-11-16T20:35:20.501Z,3.90
2022-11-16T20:37:51.132Z,3.87
2022-11-16T20:40:22.174Z,3.89
2022-11-16T20:42:52.786Z,3.93
2022-11-16T20:45:23.403Z,3.95
2022-11-16T20:47:54.040Z,4.02
2022-11-16T20:50:24.777Z,4.07
2022-11-16T20:52:55.541Z,4.07
2022-11-16T20:55:26.240Z,4.12
2022-11-16T20:57:57.033Z,4.15
2022-11-16T21:00:27.948Z,4.09
2022-11-16T21:02:58.589Z,3.97
2022-11-16T21:05:29.188Z,3.98
2022-11-16T21:08:00.445Z,4.00
2022-11-16T21:10:34.082Z,4.01
2022-11-16T21:13:22.155Z,4.03
2022-11-16T21:15:59.880Z,4.07
2022-11-16T21:18:31.099Z,4.04
2022-11-16T21:21:03.127Z,4.03
2022-11-16T21:23:35.228Z,4.03
2022-11-16T21:26:07.727Z,4.06
2022-11-16T21:28:38.795Z,4.05
2022-11-16T21:31:11.885Z,4.06
2022-11-16T21:33:42.574Z,4.09
2022-11-16T21:36:15.419Z,4.05
2022-11-16T21:38:46.320Z,4.03
2022-11-16T21:41:18.741Z,3.98
2022-11-16T21:43:49.436Z,3.94
2022-11-16T21:46:21.620Z,3.95
2022-11-16T21:48:52.911Z,3.94
2022-11-16T21:51:25.387Z,3.94
2022-11-16T21:53:56.466Z,3.98
2022-11-16T21:56:27.887Z,3.99
2022-11-16T21:58:58.612Z,4.03
2022-11-16T22:01:49.434Z,4.06
2022-11-16T22:04:37.720Z,3.98
2022-11-16T22:07:30.697Z,3.95
2022-11-16T22:10:01.712Z,3.93
2022-11-16T22:15:21.455Z,3.90
2022-11-16T22:17:52.497Z,3.87
2022-11-16T22:20:27.955Z,3.88
2022-11-16T22:22:58.837Z,3.91
2022-11-16T22:25:29.902Z,3.96
2022-11-16T22:28:21.368Z,3.99
2022-11-16T22:30:59.919Z,4.05
2022-11-16T22:33:31.185Z,4.11
2022-11-16T22:36:02.305Z,4.12
2022-11-16T22:38:34.567Z,4.14
2022-11-16T22:41:05.489Z,4.13
2022-11-16T22:43:37.786Z,4.12
2022-11-16T22:46:09.454Z,4.08
2022-11-16T22:48:42.085Z,4.07
2022-11-16T22:51:20.000Z,4.09
2022-11-16T22:53:53.156Z,4.04
2022-11-16T22:56:26.659Z,4.06
2022-11-16T22:58:57.983Z,4.04
2022-11-16T23:01:29.694Z,4.04
2022-11-16T23:04:06.849Z,4.02
2022-11-16T23:06:37.796Z,4.00
2022-11-16T23:09:08.717Z,3.99
2022-11-16T23:11:56.906Z,3.95
2022-11-16T23:14:45.420Z,3.93
2022-11-16T23:17:16.296Z,3.91
2022-11-16T23:20:17.780Z,3.85
2022-11-16T23:23:02.795Z,3.83
2022-11-16T23:25:51.418Z,3.85
2022-11-16T23:28:22.852Z,3.85
2022-11-16T23:30:53.747Z,3.87
2022-11-16T23:33:43.943Z,3.87
2022-11-16T23:36:15.523Z,3.89
2022-11-16T23:38:46.336Z,3.88
2022-11-16T23:41:31.053Z,3.88
2022-11-16T23:44:01.884Z,3.92
2022-11-16T23:46:34.256Z,3.94
2022-11-16T23:49:05.261Z,4.00
2022-11-16T23:51:36.137Z,4.01
2022-11-16T23:54:07.587Z,3.93
2022-11-16T23:56:38.462Z,3.84
2022-11-16T23:59:09.418Z,3.75
